Time;durP1;ratioP1;P1;durP2;ratioP2;P2;SDS_P1;SDS_P2;PMS_P1;PMS_P2;Temp;Humidity;BMP_temperature;BMP_pressure;BME280_temperature;BME280_humidity;BME280_pressure;Samples;Min_cycle;Max_cycle;Signal;HPM_P1;HPM_P2
2021/05/16 00:00:25;;;;;;;12.88;3.53;;;9.30;99.90;;;10.46;90.20;99152.84;5062203;28;20063;-80
2021/05/16 00:02:53;;;;;;;13.30;3.05;;;9.30;99.90;;;10.52;89.89;99154.06;5062027;28;20032;-83
2021/05/16 00:05:25;;;;;;;9.55;2.67;;;9.30;99.90;;;10.53;89.73;99148.06;5044543;28;20063;-81
2021/05/16 00:07:52;;;;;;;8.23;2.60;;;9.40;99.90;;;10.57;89.97;99150.88;5044626;28;20048;-83
2021/05/16 00:10:24;;;;;;;7.65;2.47;;;9.40;99.90;;;10.59;89.91;99142.94;5062140;28;20100;-83
2021/05/16 00:12:52;;;;;;;9.02;3.05;;;9.40;99.90;;;10.57;90.03;99148.09;5086499;28;20025;-83
2021/05/16 00:15:22;;;;;;;11.88;3.28;;;9.40;99.90;;;10.58;89.76;99144.13;5068942;28;20081;-83
2021/05/16 00:17:50;;;;;;;7.32;2.38;;;9.40;99.90;;;10.62;89.52;99144.94;5082731;28;20537;-83
2021/05/16 00:20:23;;;;;;;9.32;2.97;;;9.40;99.90;;;10.58;89.98;99144.91;5077554;28;20039;-83
2021/05/16 00:22:50;;;;;;;7.50;2.13;;;9.40;99.90;;;10.65;89.56;99151.72;5078059;28;20047;-85
2021/05/16 00:25:19;;;;;;;9.98;2.60;;;9.40;99.90;;;10.64;89.74;99147.31;5066575;28;20033;-82
2021/05/16 00:27:47;;;;;;;11.48;2.63;;;9.40;99.90;;;10.64;90.18;99142.53;5081783;28;20088;-82
2021/05/16 00:30:19;;;;;;;9.13;2.35;;;9.40;99.90;;;10.60;90.32;99136.13;5087296;28;20021;-82
2021/05/16 00:32:46;;;;;;;12.57;3.15;;;9.40;99.90;;;10.67;90.23;99140.94;5072312;28;20025;-83
2021/05/16 00:35:17;;;;;;;11.20;2.72;;;9.50;99.90;;;10.69;90.27;99133.75;5090122;28;20063;-82
2021/05/16 00:37:43;;;;;;;11.40;2.85;;;9.50;99.90;;;10.71;90.28;99136.97;5072711;28;20024;-82
2021/05/16 00:40:11;;;;;;;10.55;2.45;;;9.60;99.90;;;10.80;90.09;99136.56;5073491;28;20032;-83
2021/05/16 00:42:37;;;;;;;13.25;2.50;;;9.60;99.90;;;10.90;89.19;99128.22;5062125;28;20596;-84
2021/05/16 00:45:12;;;;;;;10.25;2.58;;;9.70;99.90;;;10.95;89.35;99139.00;5075290;28;20075;-80
2021/05/16 00:47:47;;;;;;;15.45;3.13;;;9.70;99.90;;;10.96;88.88;99137.00;5058067;28;20052;-82
2021/05/16 00:50:15;;;;;;;12.95;3.95;;;9.80;99.90;;;11.02;88.41;99141.81;5075751;28;20368;-82
2021/05/16 00:52:42;;;;;;;13.35;3.53;;;9.80;99.90;;;11.02;88.48;99141.00;5058331;28;20021;-83
2021/05/16 00:55:12;;;;;;;12.32;3.10;;;9.80;99.90;;;11.05;88.04;99137.41;5059339;28;20033;-83
2021/05/16 00:57:40;;;;;;;13.32;3.13;;;9.80;99.90;;;11.05;87.95;99143.81;5078657;28;20052;-83
2021/05/16 01:00:12;;;;;;;14.80;3.22;;;9.80;99.90;;;11.10;87.86;99126.66;5061617;28;20407;-83
2021/05/16 01:02:38;;;;;;;8.20;2.53;;;9.90;99.90;;;11.11;87.60;99138.59;5064877;28;20029;-81
2021/05/16 01:05:08;;;;;;;21.65;3.65;;;9.90;99.90;;;11.05;87.48;99140.22;5061096;28;20487;-82
2021/05/16 01:07:36;;;;;;;13.70;2.65;;;9.90;99.90;;;11.16;86.70;99137.44;5060455;28;20119;-83
2021/05/16 01:10:08;;;;;;;9.90;2.38;;;9.90;99.90;;;11.14;86.86;99131.44;5064338;28;20021;-83
2021/05/16 01:12:44;;;;;;;14.52;2.92;;;10.00;99.90;;;11.11;86.89;99142.22;5060353;28;20028;-81
2021/05/16 01:15:16;;;;;;;;;;;9.90;99.90;;;11.06;87.25;99133.44;5055880;28;20080;-81
2021/05/16 01:17:43;;;;;;;18.23;4.43;;;9.90;99.90;;;11.09;86.60;99136.22;5053279;28;19916;-81
2021/05/16 01:20:16;;;;;;;12.13;3.45;;;9.80;99.90;;;11.05;86.83;99135.41;5034954;28;20116;-80
2021/05/16 01:22:42;;;;;;;12.15;2.50;;;9.80;99.90;;;11.06;86.98;99148.19;5036110;28;20029;-80
2021/05/16 01:25:09;;;;;;;15.73;3.30;;;9.80;99.90;;;10.98;87.31;99146.59;5052797;28;20114;-80
2021/05/16 01:27:36;;;;;;;5.63;2.28;;;9.80;99.90;;;10.93;87.52;99133.03;5034737;28;20151;-81
2021/05/16 01:30:07;;;;;;;17.42;3.28;;;9.80;99.90;;;10.99;86.37;99136.22;5034605;28;20033;-81
2021/05/16 01:32:33;;;;;;;14.32;3.65;;;9.70;99.90;;;10.86;87.36;99146.97;5054401;28;20044;-81
2021/05/16 01:34:59;;;;;;;15.68;3.47;;;9.70;99.90;;;10.83;86.80;99142.19;5039482;28;20039;-80
2021/05/16 01:37:25;;;;;;;12.52;2.80;;;9.70;99.90;;;10.96;86.56;99148.19;5039111;28;20029;-81
2021/05/16 01:39:50;;;;;;;18.13;3.83;;;9.80;99.90;;;10.93;86.85;99146.19;5039470;28;20033;-80
2021/05/16 01:42:18;;;;;;;15.55;3.85;;;9.80;99.90;;;10.96;86.57;99148.19;5056258;28;20123;-80
2021/05/16 01:44:44;;;;;;;16.55;2.92;;;9.80;99.90;;;11.08;85.74;99137.41;5056086;28;20029;-81
2021/05/16 01:47:10;;;;;;;16.00;3.58;;;9.90;99.90;;;11.12;85.95;99154.19;5055027;28;20025;-79
2021/05/16 01:49:48;;;;;;;20.55;3.60;;;9.90;99.90;;;11.12;85.79;99143.00;5056204;28;20407;-79
2021/05/16 01:52:15;;;;;;;16.08;3.30;;;9.90;99.90;;;11.13;86.36;99149.41;5056586;28;20434;-85
2021/05/16 01:54:42;;;;;;;19.65;3.35;;;9.90;99.90;;;11.09;85.84;99141.81;5056728;28;20036;-82
2021/05/16 01:57:09;;;;;;;14.60;3.55;;;9.90;99.90;;;11.11;85.76;99150.59;5039843;28;20123;-83
2021/05/16 01:59:37;;;;;;;19.05;3.70;;;9.90;99.90;;;11.21;85.38;99151.00;5039978;28;20033;-82
2021/05/16 02:02:05;;;;;;;17.60;3.38;;;10.00;99.90;;;11.20;85.65;99147.41;5057623;28;20385;-79
2021/05/16 02:04:34;;;;;;;13.18;3.33;;;10.00;99.90;;;11.25;84.80;99149.00;5039380;28;20029;-82
2021/05/16 02:07:00;;;;;;;13.98;3.00;;;10.00;99.90;;;11.25;85.02;99143.41;5057961;28;20025;-81
2021/05/16 02:09:27;;;;;;;18.77;2.97;;;10.10;99.90;;;11.19;84.88;99139.44;5057598;28;20118;-81
2021/05/16 02:11:55;;;;;;;12.85;3.30;;;10.00;99.90;;;11.11;84.37;99141.41;5039369;28;20040;-81
2021/05/16 02:14:31;;;;;;;14.02;2.80;;;10.00;99.90;;;11.23;84.44;99140.22;5039715;28;20060;-83
2021/05/16 02:17:01;;;;;;;19.13;3.00;;;10.10;99.90;;;11.25;83.90;99141.44;5039395;28;20033;-82
2021/05/16 02:19:28;;;;;;;14.55;3.17;;;10.10;99.90;;;11.25;84.44;99147.00;5057532;28;20392;-81
2021/05/16 02:21:55;;;;;;;11.40;2.75;;;10.10;99.90;;;11.22;84.01;99145.00;5057334;28;20035;-85
2021/05/16 02:24:22;;;;;;;19.33;3.40;;;10.10;99.90;;;11.34;83.44;99146.59;5056875;28;20029;-83
2021/05/16 02:26:49;;;;;;;11.50;2.53;;;10.10;99.90;;;11.31;83.19;99144.59;5057622;28;20025;-82
2021/05/16 02:29:16;;;;;;;17.05;2.80;;;10.20;99.90;;;11.39;83.02;99149.81;5040136;28;20084;-83
2021/05/16 02:31:44;;;;;;;16.65;3.33;;;10.10;99.90;;;11.34;82.63;99144.63;5058231;28;20473;-84
2021/05/16 02:34:10;;;;;;;12.45;2.42;;;10.10;99.90;;;11.28;82.34;99148.19;5039494;28;20132;-82
2021/05/16 02:36:36;;;;;;;18.90;3.60;;;10.10;99.90;;;11.31;82.61;99147.41;5057770;28;20100;-82
2021/05/16 02:39:05;;;;;;;16.77;2.90;;;10.10;99.90;;;11.11;82.56;99147.78;5058298;28;20068;-84
2021/05/16 02:41:31;;;;;;;17.42;3.95;;;10.10;99.90;;;11.15;82.04;99136.63;5040206;28;20028;-83
2021/05/16 02:43:57;;;;;;;13.10;2.70;;;10.00;99.90;;;11.16;81.51;99138.22;5057543;28;20461;-82
2021/05/16 02:46:23;;;;;;;11.57;3.08;;;9.90;99.90;;;11.09;81.81;99149.41;5039990;28;20053;-81
2021/05/16 02:48:49;;;;;;;12.35;2.60;;;9.90;99.90;;;11.10;81.96;99142.63;5040711;28;20095;-83
2021/05/16 02:51:15;;;;;;;9.80;2.67;;;9.90;99.90;;;11.00;81.89;99157.38;5059230;28;20029;-83
2021/05/16 02:53:41;;;;;;;13.82;3.22;;;9.90;99.90;;;11.09;81.64;99138.22;5040508;28;20040;-82
2021/05/16 02:56:07;;;;;;;13.45;2.75;;;10.00;99.90;;;11.17;81.10;99145.44;5059375;28;20495;-84
2021/05/16 02:58:32;;;;;;;12.60;3.35;;;10.00;99.90;;;11.17;81.33;99150.22;5060540;28;20028;-82
2021/05/16 03:00:58;;;;;;;14.98;3.30;;;10.00;99.90;;;11.17;81.10;99148.22;5060414;28;20523;-82
2021/05/16 03:03:24;;;;;;;11.63;2.55;;;10.00;99.90;;;11.29;80.77;99145.03;5060221;28;20426;-83
2021/05/16 03:05:51;;;;;;;11.18;2.42;;;10.00;99.90;;;11.21;81.02;99139.81;5061148;28;20025;-84
2021/05/16 03:08:17;;;;;;;9.05;1.80;;;9.90;99.90;;;11.27;80.17;99155.78;5059937;28;20388;-82
2021/05/16 03:10:43;;;;;;;20.40;3.28;;;10.00;99.90;;;11.22;80.36;99147.00;5076860;28;20031;-84
2021/05/16 03:13:08;;;;;;;12.02;2.47;;;10.00;99.90;;;11.17;80.94;99148.22;5060463;28;20035;-82
2021/05/16 03:15:34;;;;;;;11.15;3.03;;;9.90;99.90;;;11.07;80.51;99152.59;5078841;28;20130;-82
2021/05/16 03:18:00;;;;;;;12.88;2.65;;;9.90;99.90;;;11.02;81.22;99144.59;5079854;28;20036;-85
2021/05/16 03:20:26;;;;;;;12.27;3.20;;;9.90;99.90;;;11.04;80.15;99142.19;5065473;28;20387;-84
2021/05/16 03:22:52;;;;;;;12.63;2.40;;;10.00;99.90;;;11.14;80.03;99154.59;5063897;28;20028;-81
2021/05/16 03:25:18;;;;;;;12.48;2.50;;;9.90;99.90;;;11.10;80.01;99157.41;5078116;28;20507;-82
2021/05/16 03:27:44;;;;;;;15.20;3.03;;;10.00;99.90;;;11.14;79.71;99151.81;5082657;28;20036;-81
2021/05/16 03:30:13;;;;;;;15.73;2.65;;;10.00;99.90;;;11.25;79.50;99154.59;5061032;28;20456;-82
2021/05/16 03:32:41;;;;;;;16.65;2.50;;;10.00;99.90;;;11.18;80.45;99147.00;5078347;28;20108;-84
2021/05/16 03:35:13;;;;;;;18.30;2.90;;;10.00;99.90;;;11.14;80.16;99151.00;5078801;28;20077;-83
2021/05/16 03:37:40;;;;;;;16.52;2.95;;;9.90;99.90;;;11.10;80.93;99162.97;5078131;28;20036;-81
2021/05/16 03:40:07;;;;;;;12.70;2.33;;;10.00;99.90;;;11.15;80.44;99147.00;5065274;28;20028;-80
2021/05/16 03:42:35;;;;;;;12.32;1.95;;;10.00;99.90;;;11.15;80.85;99147.00;5066463;28;20052;-83
2021/05/16 03:45:02;;;;;;;19.05;3.67;;;10.00;99.90;;;11.11;80.18;99138.59;5068215;28;20028;-81
2021/05/16 03:47:28;;;;;;;11.13;2.95;;;10.00;99.90;;;11.15;80.92;99144.22;5069116;28;20025;-84
2021/05/16 03:49:54;;;;;;;12.10;2.58;;;10.10;99.90;;;11.23;80.84;99145.81;5071505;28;20035;-79
2021/05/16 03:52:20;;;;;;;13.70;3.50;;;10.10;99.90;;;11.17;81.25;99139.84;5089962;28;20024;-81
2021/05/16 03:54:51;;;;;;;11.00;2.42;;;10.00;99.90;;;11.29;80.46;99149.81;5060164;28;20035;-83
2021/05/16 03:57:22;;;;;;;10.15;2.30;;;10.00;99.90;;;11.22;80.88;99147.00;5060724;28;20063;-81
2021/05/16 03:59:49;;;;;;;15.07;3.08;;;10.00;99.90;;;11.15;81.30;99158.19;5077610;28;20043;-83
2021/05/16 04:02:15;;;;;;;16.85;3.33;;;10.00;99.90;;;11.17;81.03;99144.63;5076033;28;20090;-82
2021/05/16 04:04:41;;;;;;;15.93;3.17;;;10.00;99.90;;;11.17;81.32;99147.41;5076363;28;20024;-81
2021/05/16 04:07:07;;;;;;;19.20;3.25;;;10.00;99.90;;;11.16;81.33;99152.19;5059376;28;20029;-81
2021/05/16 04:09:34;;;;;;;11.80;2.42;;;10.00;99.90;;;11.22;81.47;99158.19;5067358;28;20041;-82
2021/05/16 04:12:00;;;;;;;17.95;2.67;;;10.00;99.90;;;11.13;81.65;99155.78;5039247;28;20024;-82
2021/05/16 04:14:27;;;;;;;14.27;2.70;;;10.10;99.90;;;11.05;81.88;99157.78;5056965;28;20481;-83
2021/05/16 04:16:55;;;;;;;12.45;2.80;;;10.00;99.90;;;11.09;82.12;99153.00;5056818;28;20029;-81
2021/05/16 04:19:21;;;;;;;18.17;2.92;;;10.00;99.90;;;11.01;82.25;99170.94;5057316;28;20025;-81
2021/05/16 04:21:47;;;;;;;11.88;2.55;;;10.00;99.90;;;11.00;82.27;99158.19;5057219;28;20086;-83
2021/05/16 04:24:14;;;;;;;14.48;2.70;;;10.00;99.90;;;11.05;81.75;99163.34;5038963;28;20037;-82
2021/05/16 04:26:40;;;;;;;9.98;2.28;;;10.00;99.90;;;10.92;82.57;99161.34;5039626;28;20025;-83
2021/05/16 04:29:06;;;;;;;11.93;3.15;;;10.00;99.90;;;10.89;82.62;99162.94;5038604;28;20024;-82
2021/05/16 04:31:34;;;;;;;14.30;2.83;;;9.90;99.90;;;10.86;82.88;99162.91;5039724;28;20113;-85
2021/05/16 04:34:00;;;;;;;12.48;2.67;;;9.90;99.90;;;11.04;82.29;99167.34;5056920;28;20079;-81
2021/05/16 04:36:26;;;;;;;9.30;2.80;;;9.90;99.90;;;10.98;82.14;99174.50;5039690;28;20044;-80
2021/05/16 04:38:52;;;;;;;15.27;2.83;;;9.90;99.90;;;11.06;82.52;99178.13;5057579;28;20032;-82
2021/05/16 04:41:20;;;;;;;12.00;2.67;;;10.00;99.90;;;11.11;81.71;99170.16;5058190;28;20029;-83
2021/05/16 04:43:47;;;;;;;17.70;3.42;;;9.90;99.90;;;10.98;82.32;99177.31;5039587;28;20496;-80
2021/05/16 04:46:14;;;;;;;9.77;2.80;;;9.90;99.90;;;11.16;81.67;99170.97;5056521;28;20029;-81
2021/05/16 04:48:40;;;;;;;9.85;2.15;;;10.00;99.90;;;11.24;81.59;99178.16;5038864;28;20052;-79
2021/05/16 04:51:06;;;;;;;10.35;3.28;;;10.00;99.90;;;11.36;81.04;99174.97;5057580;28;20017;-81
2021/05/16 04:53:34;;;;;;;9.13;2.45;;;10.10;99.90;;;11.34;80.68;99177.34;5056974;28;20346;-80
2021/05/16 04:56:01;;;;;;;10.00;2.50;;;10.10;99.90;;;11.31;80.99;99175.34;5056844;28;20036;-80
2021/05/16 04:58:28;;;;;;;13.73;3.30;;;10.10;99.90;;;11.39;80.66;99186.16;5057493;28;20384;-80
2021/05/16 05:00:54;;;;;;;10.52;2.65;;;10.10;99.90;;;11.46;80.23;99186.13;5057446;28;20025;-82
2021/05/16 05:03:22;;;;;;;13.07;2.80;;;10.20;99.90;;;11.49;80.20;99182.53;5057742;28;20028;-81
2021/05/16 05:05:52;;;;;;;11.30;2.70;;;10.30;99.90;;;11.67;79.54;99178.94;5059189;28;20025;-79
2021/05/16 05:08:17;;;;;;;9.25;2.53;;;10.50;99.90;;;11.74;79.57;99171.38;5064693;28;20108;-82
2021/05/16 05:10:43;;;;;;;11.27;2.45;;;10.60;99.90;;;12.04;78.79;99173.75;5086853;28;20055;-82
2021/05/16 05:13:09;;;;;;;11.95;3.03;;;10.70;99.90;;;12.30;77.85;99181.63;5070108;28;20567;-82
2021/05/16 05:15:35;;;;;;;12.13;2.90;;;10.90;99.90;;;12.31;77.39;99177.66;5087530;28;20024;-82
2021/05/16 05:18:01;;;;;;;7.72;2.88;;;11.00;99.90;;;12.50;76.27;99182.78;5085332;28;20533;-80
2021/05/16 05:20:27;;;;;;;12.90;3.10;;;11.10;99.90;;;12.68;75.62;99185.50;5084112;28;20043;-82
2021/05/16 05:22:53;;;;;;;10.88;2.30;;;11.30;99.90;;;12.72;75.42;99183.47;5084256;28;20364;-82
2021/05/16 05:25:19;;;;;;;15.27;2.75;;;11.40;99.90;;;12.94;74.65;99184.94;5066435;28;20028;-80
2021/05/16 05:27:45;;;;;;;14.88;2.95;;;11.70;99.90;;;13.04;74.24;99195.28;5084272;28;20059;-82
2021/05/16 05:30:12;;;;;;;14.35;2.60;;;11.90;99.90;;;13.36;73.21;99199.91;5083782;28;20028;-81
2021/05/16 05:32:39;;;;;;;13.73;3.70;;;12.00;99.90;;;13.28;72.51;99189.97;5066508;28;20039;-83
2021/05/16 05:35:06;;;;;;;13.52;2.80;;;12.10;99.90;;;13.39;71.73;99190.72;5082430;28;20028;-82
2021/05/16 05:37:32;;;;;;;14.52;2.97;;;12.10;99.90;;;13.45;72.20;99191.88;5087280;28;20372;-81
2021/05/16 05:39:58;;;;;;;13.68;2.42;;;12.20;99.90;;;13.73;71.10;99194.44;5089989;28;20039;-81
2021/05/16 05:42:26;;;;;;;11.35;2.65;;;12.30;99.90;;;13.99;70.30;99195.78;5084134;28;20033;-83
2021/05/16 05:44:52;;;;;;;11.85;2.30;;;12.50;99.90;;;13.63;70.80;99190.50;5088698;22;20067;-84
2021/05/16 05:47:21;;;;;;;12.00;2.63;;;12.40;99.90;;;13.34;71.94;99191.94;5067821;28;20061;-84
2021/05/16 05:49:47;;;;;;;15.45;2.92;;;12.20;99.90;;;13.60;71.11;99198.94;5071216;28;20042;-84
2021/05/16 05:52:14;;;;;;;13.57;2.65;;;12.10;99.90;;;13.39;72.26;99194.28;5084138;28;20020;-83
2021/05/16 05:54:43;;;;;;;14.18;3.25;;;12.00;99.90;;;13.37;71.48;99184.69;5076481;28;20051;-82
2021/05/16 05:57:09;;;;;;;16.27;3.10;;;12.00;99.90;;;13.28;72.20;99192.78;5063138;28;20024;-82
2021/05/16 05:59:36;;;;;;;19.00;3.45;;;11.90;99.90;;;13.18;72.71;99188.84;5075924;28;20130;-84
2021/05/16 06:02:03;;;;;;;14.23;3.78;;;11.90;99.90;;;13.34;71.74;99193.94;5081614;28;20059;-83
2021/05/16 06:04:30;;;;;;;13.27;3.03;;;12.00;99.90;;;13.43;71.93;99191.47;5063953;28;20028;-82
2021/05/16 06:06:57;;;;;;;16.30;3.22;;;12.00;99.90;;;13.44;71.24;99190.25;5075281;28;20035;-84
2021/05/16 06:09:23;;;;;;;14.90;2.90;;;12.10;99.90;;;13.30;71.64;99191.16;5094112;28;20478;-83
2021/05/16 06:11:49;;;;;;;14.15;3.08;;;12.10;99.90;;;13.29;70.86;99197.19;5081267;28;20115;-84
2021/05/16 06:14:15;;;;;;;15.40;3.25;;;12.10;99.90;;;13.33;71.78;99189.53;5082991;28;20048;-83
2021/05/16 06:16:41;;;;;;;12.95;3.50;;;12.10;99.90;;;13.30;71.91;99196.75;5081634;28;20044;-82
2021/05/16 06:19:07;;;;;;;10.00;2.47;;;12.00;99.90;;;13.44;72.00;99199.47;5077123;28;20039;-83
2021/05/16 06:21:34;;;;;;;12.93;3.08;;;12.10;99.90;;;13.41;71.71;99191.09;5061176;28;20028;-83
2021/05/16 06:24:06;;;;;;;14.10;3.40;;;12.30;99.90;;;14.15;69.46;99208.06;5061782;28;20031;-84
2021/05/16 06:26:38;;;;;;;12.27;3.47;;;12.60;99.90;;;14.15;68.06;99196.81;5079129;28;20040;-85
2021/05/16 06:29:07;;;;;;;11.85;2.88;;;12.80;99.90;;;14.60;67.32;99199.56;5063232;28;20032;-84
2021/05/16 06:31:34;;;;;;;12.45;2.65;;;12.90;99.90;;;14.69;67.46;99206.25;5082052;28;20031;-90
2021/05/16 06:34:02;;;;;;;10.32;2.17;;;13.00;99.90;;;14.64;65.82;99206.72;5100721;28;20072;-88
2021/05/16 06:36:33;;;;;;;16.05;3.03;;;13.10;99.90;;;14.58;66.84;99210.41;5083334;28;20041;-85
2021/05/16 06:38:59;;;;;;;13.90;2.70;;;13.10;99.90;;;15.11;65.71;99223.78;5075260;28;20028;-86
2021/05/16 06:41:26;;;;;;;11.73;3.10;;;13.30;99.90;;;14.89;65.12;99217.66;5071674;28;20032;-80
2021/05/16 06:43:53;;;;;;;16.17;2.95;;;13.40;99.90;;;15.02;65.64;99213.06;5079042;28;20039;-85
2021/05/16 06:46:19;;;;;;;9.98;3.15;;;13.40;99.90;;;14.96;65.00;99205.53;5078409;28;20484;-81
2021/05/16 06:48:45;;;;;;;11.38;3.15;;;13.50;99.90;;;15.14;65.43;99220.13;5093301;28;20054;-82
2021/05/16 06:51:13;;;;;;;12.35;2.53;;;13.50;99.90;;;14.94;65.34;99219.97;5079231;28;20028;-84
2021/05/16 06:53:39;;;;;;;15.25;3.88;;;13.40;99.90;;;14.55;66.66;99220.47;5076075;28;20056;-86
2021/05/16 06:56:08;;;;;;;13.25;3.28;;;13.20;99.90;;;14.69;66.05;99211.06;5075778;28;20046;-85
2021/05/16 06:58:34;;;;;;;10.93;3.03;;;13.20;99.90;;;14.63;66.59;99213.56;5076181;28;20116;-82
2021/05/16 07:01:00;;;;;;;17.08;3.67;;;13.30;99.90;;;15.15;65.62;99216.09;5058914;28;20028;-84
2021/05/16 07:03:26;;;;;;;9.73;2.30;;;13.50;99.90;;;15.70;63.80;99212.88;5077427;28;20074;-84
2021/05/16 07:05:52;;;;;;;11.23;2.65;;;13.80;99.90;;;15.49;62.91;99221.63;5077793;28;20392;-83
2021/05/16 07:08:18;;;;;;;8.25;2.70;;;13.90;99.90;;;15.54;63.53;99221.94;5075952;28;20047;-86
2021/05/16 07:10:44;;;;;;;14.60;3.53;;;13.80;99.90;;;15.48;63.24;99208.78;5096536;28;20028;-85
2021/05/16 07:13:10;;;;;;;17.23;3.63;;;13.80;99.90;;;15.31;63.52;99216.25;5094121;28;20024;-83
2021/05/16 07:15:36;;;;;;;12.27;2.50;;;13.70;99.90;;;15.21;64.38;99223.63;5074842;28;20054;-81
2021/05/16 07:18:04;;;;;;;12.27;2.78;;;13.60;99.90;;;14.93;65.16;99212.75;5108305;28;20059;-83
2021/05/16 07:20:31;;;;;;;14.63;3.35;;;13.40;99.90;;;14.79;64.93;99218.59;5114632;28;20028;-82
2021/05/16 07:22:58;;;;;;;14.05;3.22;;;13.20;99.90;;;14.64;66.83;99215.13;5086915;28;20496;-83
2021/05/16 07:25:24;;;;;;;12.45;2.97;;;13.20;99.90;;;14.60;66.10;99210.78;5077054;28;20064;-84
2021/05/16 07:27:50;;;;;;;15.63;3.47;;;13.20;99.90;;;14.51;66.76;99218.94;5075778;28;20399;-82
2021/05/16 07:30:16;;;;;;;11.48;3.45;;;13.20;99.90;;;14.83;66.68;99224.97;5075966;28;20178;-80
2021/05/16 07:32:43;;;;;;;12.02;3.47;;;13.20;99.90;;;14.48;67.98;99225.38;5078594;28;20025;-83
2021/05/16 07:35:10;;;;;;;12.63;2.88;;;13.10;99.90;;;14.48;67.80;99219.78;5089319;28;20072;-78
2021/05/16 07:37:37;;;;;;;13.43;3.25;;;13.10;99.90;;;14.33;68.67;99221.94;5089558;28;20032;-87
2021/05/16 07:40:07;;;;;;;13.45;2.92;;;13.00;99.90;;;14.27;69.19;99215.16;5077580;28;20082;-87
2021/05/16 07:42:33;;;;;;;15.60;2.72;;;12.90;99.90;;;14.46;68.91;99233.41;5069373;28;20048;-83
2021/05/16 07:44:59;;;;;;;11.40;3.22;;;12.90;99.90;;;14.02;68.26;99225.84;5079974;28;20483;-87
2021/05/16 07:47:25;;;;;;;12.40;2.35;;;12.90;99.90;;;14.14;67.88;99228.91;5085150;28;20092;-84
2021/05/16 07:49:52;;;;;;;13.25;3.30;;;12.80;99.90;;;14.24;67.18;99227.22;5087742;28;20028;-83
2021/05/16 07:52:18;;;;;;;10.90;2.50;;;12.80;99.90;;;14.32;67.17;99227.94;5092811;28;20025;-85
2021/05/16 07:54:44;;;;;;;10.10;2.92;;;12.80;99.90;;;14.27;67.59;99238.41;5084228;28;20048;-82
2021/05/16 07:57:09;;;;;;;11.73;3.17;;;12.80;99.90;;;13.98;68.38;99237.09;5076601;28;20035;-79
2021/05/16 07:59:38;;;;;;;14.00;2.80;;;12.80;99.90;;;13.74;70.21;99233.28;5077919;28;20494;-82
2021/05/16 08:02:05;;;;;;;14.93;3.70;;;12.80;99.90;;;13.90;69.31;99243.19;5067013;28;20107;-83
2021/05/16 08:04:31;;;;;;;14.48;3.10;;;12.80;99.90;;;13.93;68.86;99229.13;5076951;28;20029;-82
2021/05/16 08:06:58;;;;;;;12.05;2.90;;;12.90;99.90;;;14.07;68.96;99240.22;5063856;28;20032;-81
2021/05/16 08:09:25;;;;;;;10.00;2.83;;;13.00;99.90;;;14.00;68.43;99234.66;5071537;28;20041;-82
2021/05/16 08:11:52;;;;;;;13.48;3.15;;;12.90;99.90;;;14.29;68.17;99223.94;5078422;28;20107;-82
2021/05/16 08:14:19;;;;;;;12.15;3.40;;;13.00;99.90;;;14.59;67.41;99240.91;5083494;28;20031;-82
2021/05/16 08:16:45;;;;;;;16.58;3.70;;;13.10;99.90;;;14.36;67.57;99246.38;5076542;28;20036;-82
2021/05/16 08:19:11;;;;;;;11.00;3.65;;;13.10;99.90;;;14.65;68.11;99241.22;5076022;28;20051;-82
2021/05/16 08:21:39;;;;;;;13.93;3.95;;;13.20;99.90;;;14.64;67.57;99248.84;5077823;28;20024;-82
2021/05/16 08:24:07;;;;;;;14.73;3.10;;;13.30;99.90;;;14.77;66.62;99237.84;5075678;28;20024;-82
2021/05/16 08:26:35;;;;;;;14.80;2.90;;;13.30;99.90;;;14.32;68.19;99242.00;5061205;28;20089;-83
2021/05/16 08:29:01;;;;;;;7.93;2.90;;;13.20;99.90;;;14.20;69.30;99241.28;5065431;28;20504;-81
2021/05/16 08:31:28;;;;;;;11.63;3.17;;;13.10;99.90;;;13.88;70.40;99237.19;5061351;28;20040;-82
2021/05/16 08:33:54;;;;;;;13.57;3.20;;;13.00;99.90;;;13.86;70.17;99237.59;5062705;28;20177;-81
2021/05/16 08:36:20;;;;;;;10.20;3.00;;;12.80;99.90;;;14.07;69.48;99245.03;5080671;28;20484;-82
2021/05/16 08:38:46;;;;;;;11.93;2.67;;;12.90;99.90;;;14.14;69.65;99237.34;5085338;28;20107;-83
2021/05/16 08:41:12;;;;;;;12.32;3.38;;;13.00;99.90;;;14.26;68.82;99245.22;5063713;28;20036;-84
2021/05/16 08:43:39;;;;;;;12.80;3.20;;;13.00;99.90;;;14.10;68.37;99244.19;5077609;28;20050;-81
2021/05/16 08:46:08;;;;;;;16.60;3.60;;;13.00;99.90;;;13.62;70.52;99245.00;5094959;28;20451;-82
2021/05/16 08:48:38;;;;;;;12.13;3.30;;;12.60;99.90;;;13.54;71.39;99237.88;5079684;28;20519;-81
2021/05/16 08:51:06;;;;;;;14.00;3.20;;;12.50;99.90;;;13.77;71.64;99242.91;5089274;28;20040;-80
2021/05/16 08:53:38;;;;;;;15.93;2.95;;;12.50;99.90;;;14.67;70.49;99244.44;5074540;28;20120;-82
2021/05/16 08:56:07;;;;;;;15.45;3.38;;;13.10;99.90;;;15.11;68.01;99249.88;5088919;28;20024;-82
2021/05/16 08:58:34;;;;;;;13.90;3.38;;;13.40;99.90;;;15.62;67.26;99239.53;5095108;28;20032;-81
2021/05/16 09:00:59;;;;;;;8.55;2.63;;;13.90;99.90;;;16.01;64.42;99233.25;5098307;28;20024;-82
2021/05/16 09:03:26;;;;;;;8.45;2.65;;;14.60;99.90;;;17.37;61.46;99242.19;5095348;28;20020;-81
2021/05/16 09:05:54;;;;;;;10.48;2.72;;;15.60;99.90;;;17.50;59.69;99231.81;5070266;28;20029;-83
2021/05/16 09:08:25;;;;;;;11.77;2.63;;;15.90;99.90;;;16.30;61.78;99239.97;5093343;28;20046;-82
2021/05/16 09:11:00;;;;;;;15.45;3.35;;;15.50;99.90;;;15.72;62.74;99238.56;5037792;28;20056;-81
2021/05/16 09:13:33;;;;;;;11.73;2.70;;;14.90;99.90;;;15.49;63.89;99235.69;5064790;28;20502;-84
2021/05/16 09:16:16;;;;;;;13.13;2.67;;;14.40;99.90;;;15.24;64.14;99238.84;5095176;28;20035;-83
2021/05/16 09:18:53;;;;;;;11.10;2.88;;;14.00;99.90;;;15.31;64.08;99239.53;5097605;28;20032;-83
2021/05/16 09:21:36;;;;;;;13.43;2.78;;;13.90;99.90;;;14.80;65.17;99230.63;5096342;28;20687;-85
2021/05/16 09:24:09;;;;;;;11.35;3.20;;;13.70;99.90;;;15.22;64.29;99246.91;5077602;28;20609;-80
2021/05/16 09:26:55;;;;;;;9.32;2.65;;;13.70;99.90;;;14.96;61.89;99236.44;5078454;28;20024;-84
2021/05/16 09:29:40;;;;;;;12.43;2.80;;;13.80;99.90;;;15.08;62.88;99233.06;5075278;28;20471;-82
2021/05/16 09:32:07;;;;;;;11.93;2.50;;;13.70;99.90;;;15.07;65.92;99234.28;5075396;28;20116;-82
2021/05/16 09:34:35;;;;;;;18.98;3.75;;;13.60;99.90;;;15.01;68.69;99235.97;5078075;28;20094;-81
2021/05/16 09:37:02;;;;;;;12.73;2.67;;;13.60;99.90;;;14.59;67.00;99240.91;5077353;28;20082;-82
2021/05/16 09:39:34;;;;;;;8.18;2.30;;;13.40;99.90;;;14.58;65.26;99246.91;5060863;28;20032;-80
2021/05/16 09:42:13;;;;;;;11.80;2.25;;;13.30;99.90;;;14.15;65.98;99236.13;5079224;28;20532;-80
2021/05/16 09:44:49;;;;;;;10.52;2.53;;;13.20;99.90;;;14.72;65.09;99236.31;5079038;28;20050;-82
2021/05/16 09:47:23;;;;;;;6.68;2.30;;;13.30;99.90;;;14.87;67.37;99245.38;5079435;28;20475;-83
2021/05/16 09:49:56;;;;;;;12.90;2.80;;;13.40;99.90;;;14.86;71.03;99235.38;5094401;28;20028;-83
2021/05/16 09:52:29;;;;;;;9.50;3.03;;;13.40;99.90;;;14.61;72.15;99235.66;5095568;28;20059;-83
2021/05/16 09:55:11;;;;;;;14.35;4.03;;;13.20;99.90;;;14.42;76.58;99229.84;5071902;28;20033;-83
2021/05/16 09:57:41;;;;;;;12.95;3.15;;;13.00;99.90;;;14.60;74.71;99234.06;5090110;28;20032;-84
2021/05/16 10:00:14;;;;;;;9.80;2.92;;;13.00;99.90;;;14.96;76.13;99217.53;5073526;28;20025;-84
2021/05/16 10:02:41;;;;;;;11.10;3.88;;;13.20;99.90;;;15.14;74.81;99229.34;5080389;28;20107;-82
2021/05/16 10:05:14;;;;;;;7.00;3.42;;;13.40;99.90;;;15.39;74.89;99217.72;5092644;28;20332;-83
2021/05/16 10:07:43;;;;;;;10.48;3.60;;;13.60;99.90;;;16.13;73.41;99213.72;5099103;28;20028;-83
2021/05/16 10:10:12;;;;;;;7.35;2.38;;;14.20;99.90;;;16.26;66.61;99211.84;5094471;28;20034;-83
2021/05/16 10:12:41;;;;;;;8.50;2.28;;;14.50;99.90;;;15.97;64.22;99207.97;5100546;28;20100;-82
2021/05/16 10:15:22;;;;;;;8.73;2.45;;;14.50;99.90;;;16.28;61.54;99203.75;5085553;28;20120;-84
2021/05/16 10:17:56;;;;;;;12.55;2.33;;;14.70;99.90;;;16.67;58.72;99205.03;5112995;28;20039;-86